Open Full Screen Window  High Contrast Mode
April 20, 2018 2:23 PM EDT
Weather Information
Wind Direction
  ---
Wind Speed
  00 kt (0 mph)
Wind Gust
  00 kt (0 mph)
Altimeter
30.46 in
Visibility
10 SM
Temperature
13° C
55° F
Dewpoint
-05° C
23° F
Humidity
28%
1hr Rain Fall
00.00 in.
24hr Rain Fall
00.00 in.
Sky Condition
Clear
VFR

METAR KI69 201823Z AUTO 00000KT 10SM CLR 13/M05 A3046 RMK AO2 T01251048

*Background is not an actual portrayal of the airport.